Time;durP1;ratioP1;P1;durP2;ratioP2;P2;SDS_P1;SDS_P2;PMS_P1;PMS_P2;Temp;Humidity;BMP_temperature;BMP_pressure;BME280_temperature;BME280_humidity;BME280_pressure;Samples;Min_cycle;Max_cycle;Signal;HPM_P1;HPM_P2
2023/06/30 00:04:33;;;;;;;0.80;0.50;;;;;;;23.11;50.88;100787.66;10148063;28;96881;-73
2023/06/30 00:09:37;;;;;;;1.60;0.63;;;;;;;23.15;50.71;100783.72;10169454;28;96563;-73
2023/06/30 00:14:41;;;;;;;1.33;0.50;;;;;;;23.15;50.98;100786.41;10167716;28;96898;-73
2023/06/30 00:19:45;;;;;;;0.93;0.40;;;;;;;22.98;51.31;100787.81;10162778;28;96748;-73
2023/06/30 00:24:50;;;;;;;0.60;0.52;;;;;;;22.90;51.78;100790.28;10129677;28;96687;-74
2023/06/30 00:29:53;;;;;;;1.00;0.40;;;;;;;22.97;52.14;100787.97;10151137;28;96779;-73
2023/06/30 00:34:58;;;;;;;0.33;0.30;;;;;;;22.87;52.30;100789.69;10167526;28;97041;-73
2023/06/30 00:40:02;;;;;;;1.05;0.52;;;;;;;22.73;52.81;100787.25;10135708;28;96808;-73
2023/06/30 00:45:06;;;;;;;0.40;0.30;;;;;;;22.68;53.00;100784.09;10137174;28;97173;-73
2023/06/30 00:50:12;;;;;;;1.05;0.50;;;;;;;22.76;52.66;100773.56;10167076;28;96787;-73
2023/06/30 00:55:16;;;;;;;0.95;0.40;;;;;;;22.60;52.54;100784.69;10170566;28;96841;-73
2023/06/30 01:00:20;;;;;;;0.32;0.30;;;;;;;22.61;53.12;100783.72;10175421;28;96619;-73
2023/06/30 01:05:31;;;;;;;1.13;0.50;;;;;;;22.47;53.13;100784.81;10174742;28;96785;-73
2023/06/30 01:10:36;;;;;;;0.68;0.40;;;;;;;22.45;53.38;100778.72;10169917;28;97383;-73
2023/06/30 01:15:42;;;;;;;1.00;0.50;;;;;;;22.31;53.83;100788.88;10139694;28;96776;-73
2023/06/30 01:20:47;;;;;;;0.75;0.50;;;;;;;22.20;54.34;100789.72;10166653;28;97104;-73
2023/06/30 01:25:52;;;;;;;0.90;0.60;;;;;;;22.32;54.34;100779.84;10168872;28;98877;-73
2023/06/30 01:30:55;;;;;;;2.13;0.60;;;;;;;22.43;52.31;100778.03;10148020;28;96884;-73
2023/06/30 01:36:00;;;;;;;0.80;0.43;;;;;;;22.56;51.21;100777.84;10173393;28;97368;-73
2023/06/30 01:41:07;;;;;;;1.38;0.43;;;;;;;22.62;49.73;100774.69;10171269;28;96703;-74
2023/06/30 01:46:11;;;;;;;0.80;0.40;;;;;;;22.70;48.95;100782.97;10155452;28;97412;-73
2023/06/30 01:51:17;;;;;;;0.93;0.43;;;;;;;22.59;48.28;100786.50;10170736;28;96885;-73
2023/06/30 01:56:20;;;;;;;2.17;0.32;;;;;;;22.69;47.62;100793.81;10172936;28;96684;-73
2023/06/30 02:01:23;;;;;;;0.33;0.27;;;;;;;22.61;47.68;100792.63;10169224;28;96755;-73
2023/06/30 02:06:28;;;;;;;0.87;0.33;;;;;;;22.64;47.55;100800.41;10132468;28;96774;-73
2023/06/30 02:11:31;;;;;;;1.35;0.45;;;;;;;22.57;47.28;100790.31;10152846;28;96798;-73
2023/06/30 02:16:35;;;;;;;0.63;0.50;;;;;;;22.56;46.94;100804.69;10171737;28;97398;-73
2023/06/30 02:21:40;;;;;;;0.80;0.63;;;;;;;22.50;46.63;100803.38;10171898;28;96726;-73
2023/06/30 02:26:45;;;;;;;0.68;0.28;;;;;;;22.52;46.87;100808.63;10147740;28;97550;-73
2023/06/30 02:31:49;;;;;;;0.50;0.40;;;;;;;22.40;47.29;100810.44;10170384;28;96826;-74
2023/06/30 02:36:54;;;;;;;0.70;0.40;;;;;;;22.49;46.79;100804.34;10163143;28;97462;-73
2023/06/30 02:41:57;;;;;;;1.08;0.40;;;;;;;22.45;46.95;100804.72;10159257;28;96812;-73
2023/06/30 02:47:00;;;;;;;0.45;0.40;;;;;;;22.35;47.23;100801.91;10171769;28;96706;-73
2023/06/30 02:52:06;;;;;;;1.55;0.30;;;;;;;22.33;47.22;100800.31;10170621;28;96836;-73
2023/06/30 02:57:10;;;;;;;1.48;0.47;;;;;;;22.36;46.83;100806.31;10139421;28;96609;-73
2023/06/30 03:02:13;;;;;;;1.00;0.40;;;;;;;22.30;46.91;100801.41;10170764;28;96792;-73
2023/06/30 03:07:18;;;;;;;0.50;0.40;;;;;;;22.22;47.11;100798.50;10170245;28;96866;-73
2023/06/30 03:12:21;;;;;;;0.73;0.40;;;;;;;22.18;47.38;100798.84;10143126;28;96631;-73
2023/06/30 03:17:25;;;;;;;0.83;0.30;;;;;;;22.14;47.05;100800.91;10133452;28;96836;-73
2023/06/30 03:22:30;;;;;;;2.43;1.07;;;;;;;22.15;47.42;100807.13;10170993;28;96931;-73
2023/06/30 03:27:34;;;;;;;1.85;0.40;;;;;;;22.17;47.04;100805.19;10177727;28;97723;-73
2023/06/30 03:32:38;;;;;;;1.15;0.38;;;;;;;22.14;47.17;100798.22;10170279;28;97618;-73
2023/06/30 03:37:42;;;;;;;1.45;0.60;;;;;;;22.02;46.84;100815.28;10169861;28;97112;-73
2023/06/30 03:42:46;;;;;;;1.48;0.52;;;;;;;22.06;47.17;100821.25;10157733;28;97331;-73
2023/06/30 03:47:50;;;;;;;2.13;0.50;;;;;;;22.14;47.01;100832.25;10146445;28;98665;-73
2023/06/30 03:52:54;;;;;;;2.08;0.50;;;;;;;21.89;47.57;100830.56;10169821;28;96921;-73
2023/06/30 03:57:58;;;;;;;0.80;0.30;;;;;;;21.92;47.53;100837.50;10166743;28;96921;-73
2023/06/30 04:03:01;;;;;;;1.30;0.40;;;;;;;21.88;47.81;100842.28;10144510;28;96886;-73
2023/06/30 04:08:06;;;;;;;2.20;0.50;;;;;;;21.91;47.84;100847.41;10129822;28;96779;-73
2023/06/30 04:13:09;;;;;;;0.77;0.40;;;;;;;21.82;47.83;100850.78;10169127;28;96659;-73
2023/06/30 04:18:13;;;;;;;0.55;0.30;;;;;;;21.69;48.14;100855.38;10158326;28;96821;-73
2023/06/30 04:23:18;;;;;;;1.35;0.45;;;;;;;21.78;48.08;100861.84;10129515;28;96856;-73
2023/06/30 04:28:21;;;;;;;0.90;0.38;;;;;;;21.65;48.60;100861.91;10162476;28;96841;-74
2023/06/30 04:33:24;;;;;;;1.75;0.40;;;;;;;21.60;48.53;100856.06;10176363;28;96796;-74
2023/06/30 04:38:29;;;;;;;2.08;0.38;;;;;;;21.59;48.75;100856.19;10174576;28;97073;-73
2023/06/30 04:43:32;;;;;;;1.63;0.60;;;;;;;21.56;48.59;100865.28;10175507;28;96820;-74
2023/06/30 04:48:36;;;;;;;0.45;0.32;;;;;;;21.58;48.37;100863.34;10161873;28;97747;-74
2023/06/30 04:53:41;;;;;;;2.13;0.60;;;;;;;21.52;48.67;100870.03;10172401;28;96790;-74
2023/06/30 04:58:45;;;;;;;0.45;0.28;;;;;;;21.58;48.38;100876.75;10174837;28;97624;-74
2023/06/30 05:03:48;;;;;;;1.35;0.30;;;;;;;21.52;48.41;100879.03;10174783;28;96771;-74
2023/06/30 05:08:53;;;;;;;1.00;0.40;;;;;;;21.41;48.65;100874.47;10166673;28;96699;-74
2023/06/30 05:13:57;;;;;;;0.35;0.30;;;;;;;21.58;48.59;100881.25;10135111;28;96734;-74
2023/06/30 05:19:00;;;;;;;0.43;0.30;;;;;;;21.53;48.54;100881.59;10154561;28;96710;-74
2023/06/30 05:24:05;;;;;;;0.73;0.35;;;;;;;21.47;48.68;100884.72;10175109;28;96811;-74
2023/06/30 05:29:09;;;;;;;0.70;0.38;;;;;;;21.37;49.00;100902.44;10139753;28;96664;-74
2023/06/30 05:34:15;;;;;;;0.50;0.30;;;;;;;21.28;49.63;100901.28;10142809;28;96963;-74
2023/06/30 05:39:20;;;;;;;0.30;0.30;;;;;;;21.42;49.67;100905.63;10172402;28;96755;-74
2023/06/30 05:44:24;;;;;;;2.00;0.50;;;;;;;21.36;49.82;100908.78;10172538;28;96830;-74
2023/06/30 05:49:28;;;;;;;0.68;0.43;;;;;;;21.33;49.92;100922.38;10173953;28;97227;-74
2023/06/30 05:54:32;;;;;;;0.83;0.33;;;;;;;21.41;49.95;100930.72;10173135;28;97749;-74
2023/06/30 05:59:35;;;;;;;0.85;0.50;;;;;;;21.46;49.26;100923.19;10167473;28;96816;-74
2023/06/30 06:04:39;;;;;;;1.05;0.30;;;;;;;21.36;49.82;100935.56;10133230;28;96721;-74
2023/06/30 06:09:44;;;;;;;1.83;0.50;;;;;;;21.45;49.46;100938.38;10155660;28;96799;-74
2023/06/30 06:14:47;;;;;;;0.35;0.22;;;;;;;21.40;49.46;100937.00;10173798;28;96740;-76
2023/06/30 06:19:52;;;;;;;0.32;0.30;;;;;;;21.41;49.54;100954.81;10165052;28;96973;-75
2023/06/30 06:24:57;;;;;;;1.25;0.38;;;;;;;21.54;48.77;100960.13;10167671;28;102338;-76
2023/06/30 06:30:01;;;;;;;0.65;0.32;;;;;;;21.58;48.97;100953.56;10138003;28;97721;-75
2023/06/30 06:35:05;;;;;;;1.55;0.30;;;;;;;21.47;48.97;100965.06;10150322;28;97267;-73
2023/06/30 06:40:11;;;;;;;1.15;0.45;;;;;;;21.73;48.50;100955.13;10153078;28;96855;-74
2023/06/30 06:45:15;;;;;;;0.80;0.35;;;;;;;21.84;48.27;100955.16;10152121;28;98783;-72
2023/06/30 06:50:18;;;;;;;1.13;0.40;;;;;;;21.77;48.26;100960.13;10155400;28;98739;-73
2023/06/30 06:55:23;;;;;;;0.55;0.20;;;;;;;21.83;48.19;100964.19;10164211;28;96856;-73
2023/06/30 07:00:27;;;;;;;1.02;0.47;;;;;;;22.01;47.26;100963.69;10155891;28;96858;-72
2023/06/30 07:05:31;;;;;;;2.90;0.93;;;;;;;21.97;47.38;100967.50;10150056;28;97045;-71
2023/06/30 07:10:36;;;;;;;0.25;0.25;;;;;;;21.96;47.03;100968.50;10159323;28;96890;-72
2023/06/30 07:15:39;;;;;;;0.30;0.20;;;;;;;22.10;46.82;100979.06;10168937;28;96867;-72
2023/06/30 07:20:43;;;;;;;0.73;0.30;;;;;;;22.13;46.76;100978.81;10140207;28;97477;-72
2023/06/30 07:25:48;;;;;;;0.63;0.20;;;;;;;22.21;46.17;100976.41;10132747;28;96992;-72
2023/06/30 07:30:52;;;;;;;0.45;0.30;;;;;;;22.31;45.98;100976.56;10162992;28;97515;-72
2023/06/30 07:35:56;;;;;;;0.35;0.30;;;;;;;22.33;45.69;100980.84;10151019;28;96762;-72
2023/06/30 07:41:01;;;;;;;0.50;0.30;;;;;;;22.26;45.22;100986.81;10161426;28;97756;-73
2023/06/30 07:46:05;;;;;;;0.52;0.35;;;;;;;22.40;45.30;100984.75;10156925;28;97112;-72
2023/06/30 07:51:08;;;;;;;0.80;0.40;;;;;;;22.51;44.77;100995.53;10166708;28;96869;-73
2023/06/30 07:56:13;;;;;;;1.53;0.30;;;;;;;22.57;44.04;100992.34;10145211;28;98377;-73
2023/06/30 08:01:16;;;;;;;0.22;0.20;;;;;;;22.76;44.02;100986.44;10161253;28;96778;-73
2023/06/30 08:06:20;;;;;;;0.75;0.13;;;;;;;22.73;43.65;100984.00;10174196;28;96818;-73
2023/06/30 08:11:25;;;;;;;1.52;0.30;;;;;;;22.79;43.23;100982.66;10156654;28;96692;-73
2023/06/30 08:16:28;;;;;;;0.40;0.17;;;;;;;22.88;42.87;100990.00;10166801;28;96951;-73
2023/06/30 08:21:32;;;;;;;0.63;0.10;;;;;;;22.90;42.68;100993.44;10172944;28;97771;-71
2023/06/30 08:26:37;;;;;;;0.70;0.20;;;;;;;22.97;42.39;100991.97;10163037;28;96666;-72
2023/06/30 08:31:41;;;;;;;0.50;0.10;;;;;;;23.09;42.46;100999.91;10136010;28;96780;-72
2023/06/30 08:36:44;;;;;;;0.20;0.20;;;;;;;23.26;42.18;100995.88;10135810;28;97034;-72
2023/06/30 08:41:53;;;;;;;0.30;0.30;;;;;;;23.36;41.88;101000.38;10138646;28;96804;-72
